createdAt,value
2023-03-31T00:01:37.013Z,1.75
2023-03-31T00:04:04.958Z,1.75
2023-03-31T00:06:48.766Z,1.50
2023-03-31T00:09:18.981Z,1.50
2023-03-31T00:11:46.308Z,1.40
2023-03-31T00:14:15.866Z,1.65
2023-03-31T00:16:42.594Z,1.70
2023-03-31T00:19:18.958Z,1.23
2023-03-31T00:21:47.760Z,1.48
2023-03-31T00:24:16.159Z,1.67
2023-03-31T00:26:42.719Z,1.63
2023-03-31T00:29:10.291Z,1.40
2023-03-31T00:31:38.790Z,1.38
2023-03-31T00:34:05.971Z,1.42
2023-03-31T00:36:36.470Z,1.40
2023-03-31T00:39:09.392Z,1.65
2023-03-31T00:41:39.100Z,1.42
2023-03-31T00:44:19.225Z,1.80
2023-03-31T00:46:54.285Z,1.65
2023-03-31T00:49:33.027Z,1.43
2023-03-31T00:52:14.860Z,2.15
2023-03-31T00:54:47.350Z,2.03
2023-03-31T00:57:16.230Z,1.80
2023-03-31T00:59:58.791Z,1.70
2023-03-31T01:02:30.138Z,1.73
2023-03-31T01:05:02.470Z,1.60
2023-03-31T01:10:05.298Z,1.55
2023-03-31T01:12:38.442Z,1.83
2023-03-31T01:15:06.408Z,2.00
2023-03-31T01:17:46.285Z,2.25
2023-03-31T01:20:48.913Z,2.22
2023-03-31T01:23:18.660Z,1.67
2023-03-31T01:31:23.947Z,2.13
2023-03-31T01:34:16.564Z,2.47
2023-03-31T01:37:04.233Z,2.17
2023-03-31T01:39:42.947Z,2.30
2023-03-31T01:42:15.486Z,2.17
2023-03-31T01:45:00.335Z,2.45
2023-03-31T01:47:44.459Z,2.35
2023-03-31T01:50:33.647Z,2.47
2023-03-31T01:53:15.221Z,2.00
2023-03-31T01:56:00.784Z,2.22
2023-03-31T01:58:40.458Z,2.88
2023-03-31T02:01:19.587Z,3.00
2023-03-31T02:03:57.256Z,2.63
2023-03-31T02:06:33.559Z,3.22
2023-03-31T02:12:01.103Z,2.42
2023-03-31T02:14:34.688Z,2.80
2023-03-31T02:17:08.727Z,2.53
2023-03-31T02:19:40.131Z,2.58
2023-03-31T02:22:09.096Z,2.53
2023-03-31T02:24:41.443Z,3.15
2023-03-31T02:27:32.007Z,2.65
2023-03-31T02:30:02.214Z,2.67
2023-03-31T02:32:41.065Z,2.75
2023-03-31T02:35:12.259Z,2.42
2023-03-31T02:37:40.956Z,2.67
2023-03-31T02:40:12.778Z,2.35
2023-03-31T02:42:41.172Z,2.70
2023-03-31T02:45:44.616Z,3.03
2023-03-31T02:52:24.490Z,2.95
2023-03-31T02:55:09.083Z,3.30
2023-03-31T02:57:56.729Z,2.78
2023-03-31T03:00:44.078Z,2.67
2023-03-31T03:03:28.216Z,2.63
2023-03-31T03:06:19.330Z,3.42
2023-03-31T03:09:04.969Z,2.83
2023-03-31T03:11:47.410Z,3.17
2023-03-31T03:14:37.059Z,2.92
2023-03-31T03:17:17.452Z,3.00
2023-03-31T03:19:44.522Z,2.88
2023-03-31T03:22:14.181Z,2.95
2023-03-31T03:24:46.300Z,3.50
2023-03-31T03:27:13.526Z,3.08
2023-03-31T03:29:41.882Z,3.28
2023-03-31T03:32:12.804Z,3.53
2023-03-31T03:34:39.330Z,3.08
2023-03-31T03:37:05.952Z,4.07
2023-03-31T03:39:32.579Z,3.08
2023-03-31T03:41:59.103Z,3.88
2023-03-31T03:44:25.604Z,3.20
2023-03-31T03:46:52.071Z,3.30
2023-03-31T03:49:18.953Z,2.95
2023-03-31T03:51:47.029Z,4.07
2023-03-31T03:54:13.945Z,3.35
2023-03-31T03:56:40.587Z,3.58
2023-03-31T03:59:07.040Z,3.15
2023-03-31T04:01:33.543Z,3.35
2023-03-31T04:04:01.276Z,3.38
2023-03-31T04:06:27.738Z,3.55
2023-03-31T04:08:54.266Z,3.13
2023-03-31T04:11:20.825Z,3.33
2023-03-31T04:13:47.581Z,3.08
2023-03-31T04:16:14.850Z,3.10
2023-03-31T04:18:43.534Z,2.88
2023-03-31T04:21:15.758Z,2.90
2023-03-31T04:23:46.434Z,3.03
2023-03-31T04:26:18.514Z,3.38
2023-03-31T04:28:50.738Z,3.42
2023-03-31T04:31:27.002Z,2.67
2023-03-31T04:33:55.025Z,2.97
2023-03-31T04:36:22.519Z,3.20
2023-03-31T04:38:55.266Z,3.00
2023-03-31T04:41:24.436Z,3.47
2023-03-31T04:43:59.015Z,3.13
2023-03-31T04:46:26.596Z,3.17
2023-03-31T04:48:53.160Z,3.28
2023-03-31T04:51:20.590Z,3.50
2023-03-31T04:53:53.401Z,2.95
2023-03-31T04:56:21.132Z,3.10
2023-03-31T04:58:47.657Z,3.03
2023-03-31T05:01:19.978Z,3.30
2023-03-31T05:03:48.096Z,3.17
2023-03-31T05:06:16.463Z,3.20
2023-03-31T05:08:44.375Z,3.67
2023-03-31T05:11:11.429Z,3.40
2023-03-31T05:13:38.185Z,3.60
2023-03-31T05:16:14.749Z,3.67
2023-03-31T05:18:42.491Z,4.53
2023-03-31T05:21:22.909Z,3.45
2023-03-31T05:24:00.775Z,3.75
2023-03-31T05:26:29.374Z,3.85
2023-03-31T05:58:43.741Z,3.50
2023-03-31T06:06:28.005Z,3.80
2023-03-31T06:08:59.004Z,3.28
2023-03-31T06:11:28.756Z,2.83
2023-03-31T06:13:58.125Z,2.67
2023-03-31T06:16:31.234Z,3.00
2023-03-31T06:18:58.156Z,3.03
2023-03-31T06:21:25.036Z,2.65
2023-03-31T06:23:55.176Z,3.10
2023-03-31T06:26:22.792Z,2.67
2023-03-31T06:31:32.156Z,3.13
2023-03-31T06:33:58.705Z,2.90
2023-03-31T06:47:06.363Z,3.22
2023-03-31T06:52:08.598Z,3.17
2023-03-31T06:54:35.159Z,3.00
2023-03-31T06:59:43.650Z,3.80
2023-03-31T07:04:55.092Z,2.45
2023-03-31T07:18:14.213Z,2.20
2023-03-31T07:31:56.517Z,2.17
2023-03-31T07:34:23.082Z,1.83
2023-03-31T07:36:49.562Z,2.40
2023-03-31T07:39:16.029Z,4.72
2023-03-31T07:41:42.585Z,2.30
2023-03-31T07:44:09.956Z,2.35
2023-03-31T07:46:36.475Z,2.17
2023-03-31T07:49:03.380Z,2.20
2023-03-31T07:51:29.853Z,2.10
2023-03-31T07:53:56.258Z,2.22
2023-03-31T07:56:24.935Z,1.92
2023-03-31T07:58:54.440Z,2.00
2023-03-31T08:01:25.805Z,2.15
2023-03-31T08:03:54.532Z,2.90
2023-03-31T08:06:23.426Z,2.50
2023-03-31T08:14:06.497Z,3.08
2023-03-31T08:16:36.785Z,2.67
2023-03-31T08:19:03.408Z,3.30
2023-03-31T08:21:29.994Z,2.72
2023-03-31T08:23:56.508Z,2.20
2023-03-31T08:26:24.373Z,2.30
2023-03-31T18:30:53.674Z,1.38
2023-03-31T18:50:15.424Z,1.60
2023-03-31T18:52:42.096Z,2.28
2023-03-31T18:59:11.586Z,1.50
2023-03-31T19:04:49.856Z,2.42
2023-03-31T19:07:17.586Z,1.80
2023-03-31T19:09:44.978Z,1.65
2023-03-31T19:12:11.871Z,2.03
2023-03-31T19:14:40.921Z,2.75
2023-03-31T19:17:07.322Z,3.08
2023-03-31T19:19:33.790Z,2.67
2023-03-31T19:22:00.430Z,2.22
2023-03-31T19:24:29.564Z,2.95
2023-03-31T19:26:56.965Z,2.33
2023-03-31T19:29:24.000Z,2.85
2023-03-31T19:31:51.906Z,2.25
2023-03-31T19:34:18.515Z,2.10
2023-03-31T19:36:45.022Z,2.83
2023-03-31T19:42:33.380Z,2.78
2023-03-31T19:44:59.914Z,4.40
2023-03-31T19:47:26.598Z,3.95
2023-03-31T19:49:53.334Z,3.75
2023-03-31T19:52:19.773Z,3.72
2023-03-31T19:54:49.320Z,3.70
2023-03-31T19:57:16.079Z,3.22
2023-03-31T19:59:42.599Z,4.93
2023-03-31T20:02:12.706Z,4.20
2023-03-31T20:04:39.964Z,3.72
2023-03-31T20:07:06.454Z,5.32
2023-03-31T20:09:41.998Z,4.07
2023-03-31T20:12:08.923Z,4.55
2023-03-31T20:14:35.440Z,3.88
2023-03-31T20:17:03.223Z,4.10
2023-03-31T20:19:29.767Z,3.85
2023-03-31T20:21:57.906Z,4.15
2023-03-31T20:24:24.764Z,3.58
2023-03-31T20:26:51.991Z,4.57
2023-03-31T20:29:22.254Z,3.97
2023-03-31T20:31:52.813Z,4.00
2023-03-31T20:34:24.564Z,3.55
2023-03-31T20:36:53.854Z,5.13
2023-03-31T20:39:23.423Z,4.75
2023-03-31T20:44:26.808Z,4.32
2023-03-31T20:46:57.134Z,4.95
2023-03-31T20:49:23.987Z,4.68
2023-03-31T20:51:51.008Z,4.95
2023-03-31T20:54:20.631Z,4.40
2023-03-31T20:56:51.459Z,5.53
2023-03-31T20:59:18.980Z,7.38
2023-03-31T21:01:52.910Z,6.95
2023-03-31T21:04:21.273Z,4.45
2023-03-31T21:06:52.187Z,4.55
2023-03-31T21:09:22.813Z,5.00
2023-03-31T21:11:55.927Z,4.70
2023-03-31T21:14:24.523Z,4.80
2023-03-31T21:16:51.154Z,4.40
2023-03-31T21:19:31.666Z,4.57
2023-03-31T21:21:58.492Z,4.43
2023-03-31T21:24:26.362Z,4.35
2023-03-31T21:26:58.305Z,4.28
2023-03-31T21:29:25.740Z,4.30
2023-03-31T21:31:52.337Z,4.25
2023-03-31T21:34:18.856Z,4.13
2023-03-31T21:36:45.312Z,4.95
2023-03-31T21:39:12.407Z,4.35
2023-03-31T21:41:40.647Z,4.07
2023-03-31T21:44:08.920Z,4.30
2023-03-31T21:49:10.928Z,4.18
2023-03-31T21:54:07.642Z,3.42
2023-03-31T22:01:52.136Z,4.10
2023-03-31T22:06:48.320Z,4.15
2023-03-31T22:09:15.261Z,4.25
2023-03-31T22:11:42.076Z,4.30
2023-03-31T22:14:08.599Z,3.88
2023-03-31T22:16:35.439Z,4.93
2023-03-31T22:19:02.714Z,4.63
2023-03-31T22:21:29.259Z,5.07
2023-03-31T22:23:58.619Z,5.25
2023-03-31T22:26:27.056Z,5.28
2023-03-31T22:28:53.582Z,5.03
2023-03-31T22:31:20.677Z,5.78
2023-03-31T22:33:47.775Z,5.28
2023-03-31T22:36:14.703Z,4.97
2023-03-31T22:38:41.922Z,5.20
2023-03-31T22:41:08.686Z,5.70
2023-03-31T22:43:35.692Z,5.85
2023-03-31T22:46:04.624Z,5.80
2023-03-31T22:48:31.246Z,5.35
2023-03-31T22:50:57.685Z,5.32
2023-03-31T22:53:24.167Z,5.60
2023-03-31T22:55:54.236Z,5.13
2023-03-31T22:58:21.520Z,5.35
2023-03-31T23:00:55.701Z,5.70
2023-03-31T23:03:22.177Z,5.63
2023-03-31T23:05:48.657Z,5.63
2023-03-31T23:08:15.255Z,5.50
2023-03-31T23:10:41.955Z,5.90
2023-03-31T23:13:08.430Z,5.57
2023-03-31T23:15:35.658Z,5.20
2023-03-31T23:18:02.153Z,4.88
2023-03-31T23:20:29.552Z,5.30
2023-03-31T23:22:58.312Z,4.80
2023-03-31T23:25:24.840Z,5.55
2023-03-31T23:27:51.280Z,5.50
2023-03-31T23:30:17.787Z,5.07
2023-03-31T23:32:44.324Z,4.65
2023-03-31T23:35:11.478Z,5.25
2023-03-31T23:37:37.975Z,5.03
2023-03-31T23:40:05.343Z,5.68
2023-03-31T23:42:32.015Z,5.43
2023-03-31T23:44:58.876Z,5.22
2023-03-31T23:47:25.536Z,5.18
2023-03-31T23:49:52.211Z,4.63
2023-03-31T23:52:18.682Z,4.47
2023-03-31T23:54:45.163Z,5.82
2023-03-31T23:57:12.694Z,4.88
2023-03-31T23:59:39.108Z,4.68
